sensor_id;sensor_type;location;lat;lon;timestamp;pressure;altitude;pressure_sealevel;temperature;humidity
45991;BME280;31721;41.740;-88.000;2023-02-13T00:00:04;98497.34;;;8.56;29.53
45991;BME280;31721;41.740;-88.000;2023-02-13T00:02:33;98499.66;;;8.50;29.68
45991;BME280;31721;41.740;-88.000;2023-02-13T00:05:01;98506.74;;;8.51;29.60
45991;BME280;31721;41.740;-88.000;2023-02-13T00:07:29;98506.40;;;8.45;29.68
45991;BME280;31721;41.740;-88.000;2023-02-13T00:09:56;98511.08;;;8.31;29.99
45991;BME280;31721;41.740;-88.000;2023-02-13T00:12:24;98510.18;;;8.42;29.75
45991;BME280;31721;41.740;-88.000;2023-02-13T00:14:52;98509.23;;;8.30;29.82
45991;BME280;31721;41.740;-88.000;2023-02-13T00:17:20;98506.32;;;8.28;30.00
45991;BME280;31721;41.740;-88.000;2023-02-13T00:19:47;98502.38;;;8.20;30.05
45991;BME280;31721;41.740;-88.000;2023-02-13T00:22:15;98504.77;;;8.03;30.04
45991;BME280;31721;41.740;-88.000;2023-02-13T00:24:43;98504.17;;;8.03;30.20
45991;BME280;31721;41.740;-88.000;2023-02-13T00:27:10;98507.05;;;7.87;29.96
45991;BME280;31721;41.740;-88.000;2023-02-13T00:29:38;98505.32;;;7.90;30.07
45991;BME280;31721;41.740;-88.000;2023-02-13T00:32:06;98499.80;;;7.91;30.06
45991;BME280;31721;41.740;-88.000;2023-02-13T00:34:34;98507.77;;;7.88;30.21
45991;BME280;31721;41.740;-88.000;2023-02-13T00:37:02;98510.85;;;7.80;30.35
45991;BME280;31721;41.740;-88.000;2023-02-13T00:39:30;98514.16;;;7.73;30.30
45991;BME280;31721;41.740;-88.000;2023-02-13T00:41:58;98513.73;;;7.74;30.32
45991;BME280;31721;41.740;-88.000;2023-02-13T00:44:26;98512.22;;;7.61;30.55
45991;BME280;31721;41.740;-88.000;2023-02-13T00:46:53;98515.61;;;7.74;30.48
45991;BME280;31721;41.740;-88.000;2023-02-13T00:49:21;98502.65;;;7.57;30.65
45991;BME280;31721;41.740;-88.000;2023-02-13T00:51:49;98498.61;;;7.33;30.81
45991;BME280;31721;41.740;-88.000;2023-02-13T00:54:17;98498.39;;;7.50;31.29
45991;BME280;31721;41.740;-88.000;2023-02-13T00:56:45;98491.18;;;7.19;31.81
45991;BME280;31721;41.740;-88.000;2023-02-13T00:59:14;98495.41;;;7.31;31.41
45991;BME280;31721;41.740;-88.000;2023-02-13T01:01:42;98493.74;;;7.35;31.60
45991;BME280;31721;41.740;-88.000;2023-02-13T01:04:10;98493.41;;;7.35;32.90
45991;BME280;31721;41.740;-88.000;2023-02-13T01:06:38;98501.03;;;7.15;32.03
45991;BME280;31721;41.740;-88.000;2023-02-13T01:09:06;98498.25;;;7.12;31.87
45991;BME280;31721;41.740;-88.000;2023-02-13T01:11:33;98492.87;;;7.03;32.04
45991;BME280;31721;41.740;-88.000;2023-02-13T01:14:01;98491.76;;;6.99;32.17
45991;BME280;31721;41.740;-88.000;2023-02-13T01:16:29;98492.28;;;7.06;32.79
45991;BME280;31721;41.740;-88.000;2023-02-13T01:18:57;98493.47;;;7.06;32.48
45991;BME280;31721;41.740;-88.000;2023-02-13T01:21:25;98496.89;;;7.12;32.56
45991;BME280;31721;41.740;-88.000;2023-02-13T01:23:53;98493.95;;;7.14;32.90
45991;BME280;31721;41.740;-88.000;2023-02-13T01:26:22;98489.74;;;7.00;33.14
45991;BME280;31721;41.740;-88.000;2023-02-13T01:28:52;98495.49;;;7.20;33.07
45991;BME280;31721;41.740;-88.000;2023-02-13T01:31:20;98499.65;;;7.38;32.99
45991;BME280;31721;41.740;-88.000;2023-02-13T01:33:48;98495.52;;;7.15;33.18
45991;BME280;31721;41.740;-88.000;2023-02-13T01:36:17;98494.41;;;7.16;33.30
45991;BME280;31721;41.740;-88.000;2023-02-13T01:38:45;98488.88;;;7.06;32.96
45991;BME280;31721;41.740;-88.000;2023-02-13T01:41:13;98490.23;;;7.08;33.10
45991;BME280;31721;41.740;-88.000;2023-02-13T01:43:48;98488.68;;;7.04;34.08
45991;BME280;31721;41.740;-88.000;2023-02-13T01:46:21;98488.45;;;7.23;33.37
45991;BME280;31721;41.740;-88.000;2023-02-13T01:48:51;98485.22;;;7.13;33.06
45991;BME280;31721;41.740;-88.000;2023-02-13T01:51:24;98482.60;;;6.98;33.86
45991;BME280;31721;41.740;-88.000;2023-02-13T01:53:58;98483.46;;;6.90;33.25
45991;BME280;31721;41.740;-88.000;2023-02-13T01:56:31;98482.02;;;7.19;33.50
45991;BME280;31721;41.740;-88.000;2023-02-13T01:59:06;98478.01;;;7.04;33.73
45991;BME280;31721;41.740;-88.000;2023-02-13T02:01:35;98468.15;;;6.93;33.50
45991;BME280;31721;41.740;-88.000;2023-02-13T02:04:07;98467.99;;;6.81;33.71
45991;BME280;31721;41.740;-88.000;2023-02-13T02:06:40;98462.64;;;6.66;33.92
45991;BME280;31721;41.740;-88.000;2023-02-13T02:09:13;98461.13;;;6.79;33.84
45991;BME280;31721;41.740;-88.000;2023-02-13T02:11:50;98449.85;;;6.73;34.00
45991;BME280;31721;41.740;-88.000;2023-02-13T02:14:19;98447.21;;;6.59;34.90
45991;BME280;31721;41.740;-88.000;2023-02-13T02:16:47;98448.02;;;6.75;34.18
45991;BME280;31721;41.740;-88.000;2023-02-13T02:19:21;98446.35;;;6.77;34.31
45991;BME280;31721;41.740;-88.000;2023-02-13T02:23:10;98443.97;;;6.39;35.23
45991;BME280;31721;41.740;-88.000;2023-02-13T02:26:36;98442.47;;;6.50;35.13
45991;BME280;31721;41.740;-88.000;2023-02-13T02:29:29;98432.71;;;6.44;34.56
45991;BME280;31721;41.740;-88.000;2023-02-13T02:32:15;98428.62;;;6.52;34.97
45991;BME280;31721;41.740;-88.000;2023-02-13T02:34:53;98420.28;;;6.50;34.51
45991;BME280;31721;41.740;-88.000;2023-02-13T02:37:38;98416.87;;;6.76;34.76
45991;BME280;31721;41.740;-88.000;2023-02-13T02:40:17;98404.43;;;6.54;34.51
45991;BME280;31721;41.740;-88.000;2023-02-13T02:42:57;98403.44;;;6.43;34.67
45991;BME280;31721;41.740;-88.000;2023-02-13T02:45:34;98405.19;;;6.40;34.42
45991;BME280;31721;41.740;-88.000;2023-02-13T02:48:08;98407.25;;;6.47;34.55
45991;BME280;31721;41.740;-88.000;2023-02-13T02:50:41;98408.26;;;6.44;34.69
45991;BME280;31721;41.740;-88.000;2023-02-13T02:53:20;98405.98;;;6.47;34.71
45991;BME280;31721;41.740;-88.000;2023-02-13T02:55:58;98402.20;;;6.56;34.76
45991;BME280;31721;41.740;-88.000;2023-02-13T02:58:35;98393.92;;;6.22;35.49
45991;BME280;31721;41.740;-88.000;2023-02-13T03:01:07;98398.07;;;6.59;34.64
45991;BME280;31721;41.740;-88.000;2023-02-13T03:03:37;98402.11;;;6.68;34.78
45991;BME280;31721;41.740;-88.000;2023-02-13T03:06:11;98399.68;;;6.55;34.83
45991;BME280;31721;41.740;-88.000;2023-02-13T03:08:44;98389.23;;;6.22;34.97
45991;BME280;31721;41.740;-88.000;2023-02-13T03:11:13;98389.95;;;6.25;34.74
45991;BME280;31721;41.740;-88.000;2023-02-13T03:13:45;98386.71;;;6.49;34.65
45991;BME280;31721;41.740;-88.000;2023-02-13T03:16:17;98381.77;;;6.41;35.00
45991;BME280;31721;41.740;-88.000;2023-02-13T03:18:50;98382.67;;;6.47;34.85
45991;BME280;31721;41.740;-88.000;2023-02-13T03:21:25;98386.35;;;6.38;34.89
45991;BME280;31721;41.740;-88.000;2023-02-13T03:24:00;98380.92;;;6.43;34.95
45991;BME280;31721;41.740;-88.000;2023-02-13T03:26:38;98379.47;;;6.41;34.84
45991;BME280;31721;41.740;-88.000;2023-02-13T03:29:20;98378.45;;;6.41;34.93
45991;BME280;31721;41.740;-88.000;2023-02-13T03:31:53;98377.86;;;6.25;34.81
45991;BME280;31721;41.740;-88.000;2023-02-13T03:34:26;98379.44;;;6.30;34.97
45991;BME280;31721;41.740;-88.000;2023-02-13T03:36:59;98378.58;;;6.39;34.85
45991;BME280;31721;41.740;-88.000;2023-02-13T03:39:37;98380.84;;;6.65;34.74
45991;BME280;31721;41.740;-88.000;2023-02-13T03:42:14;98382.67;;;6.54;34.80
45991;BME280;31721;41.740;-88.000;2023-02-13T03:44:50;98381.05;;;6.54;34.58
45991;BME280;31721;41.740;-88.000;2023-02-13T03:47:20;98380.61;;;6.91;34.43
45991;BME280;31721;41.740;-88.000;2023-02-13T03:49:49;98377.16;;;6.63;34.55
45991;BME280;31721;41.740;-88.000;2023-02-13T03:52:22;98374.36;;;6.43;34.20
45991;BME280;31721;41.740;-88.000;2023-02-13T03:54:55;98371.57;;;6.61;34.74
45991;BME280;31721;41.740;-88.000;2023-02-13T03:57:26;98372.57;;;6.63;34.74
45991;BME280;31721;41.740;-88.000;2023-02-13T03:59:56;98374.52;;;6.70;34.51
45991;BME280;31721;41.740;-88.000;2023-02-13T04:02:29;98373.76;;;6.79;34.54
45991;BME280;31721;41.740;-88.000;2023-02-13T04:05:05;98371.99;;;6.57;34.70
45991;BME280;31721;41.740;-88.000;2023-02-13T04:07:35;98368.61;;;6.71;34.41
45991;BME280;31721;41.740;-88.000;2023-02-13T04:10:05;98367.91;;;6.66;34.70
45991;BME280;31721;41.740;-88.000;2023-02-13T04:12:38;98364.01;;;6.44;34.73
45991;BME280;31721;41.740;-88.000;2023-02-13T04:15:13;98357.55;;;6.32;34.41
45991;BME280;31721;41.740;-88.000;2023-02-13T04:17:46;98356.42;;;6.48;34.62
45991;BME280;31721;41.740;-88.000;2023-02-13T04:20:16;98352.23;;;6.34;34.88
45991;BME280;31721;41.740;-88.000;2023-02-13T04:22:46;98347.77;;;6.36;34.79
45991;BME280;31721;41.740;-88.000;2023-02-13T04:25:15;98346.35;;;6.26;34.70
45991;BME280;31721;41.740;-88.000;2023-02-13T04:27:44;98346.78;;;6.08;35.14
45991;BME280;31721;41.740;-88.000;2023-02-13T04:30:13;98348.90;;;6.25;35.17
45991;BME280;31721;41.740;-88.000;2023-02-13T04:32:41;98347.19;;;6.46;34.93
45991;BME280;31721;41.740;-88.000;2023-02-13T04:35:09;98341.07;;;6.24;35.30
45991;BME280;31721;41.740;-88.000;2023-02-13T04:37:37;98332.84;;;6.42;34.66
45991;BME280;31721;41.740;-88.000;2023-02-13T04:40:06;98327.69;;;6.22;34.70
45991;BME280;31721;41.740;-88.000;2023-02-13T04:42:34;98321.21;;;6.16;35.01
45991;BME280;31721;41.740;-88.000;2023-02-13T04:45:03;98315.99;;;6.19;35.07
45991;BME280;31721;41.740;-88.000;2023-02-13T04:47:31;98312.75;;;6.18;34.91
45991;BME280;31721;41.740;-88.000;2023-02-13T04:49:58;98311.84;;;6.12;35.02
45991;BME280;31721;41.740;-88.000;2023-02-13T04:52:26;98315.20;;;6.00;35.15
45991;BME280;31721;41.740;-88.000;2023-02-13T04:54:53;98315.86;;;6.08;35.23
45991;BME280;31721;41.740;-88.000;2023-02-13T04:57:21;98317.52;;;6.15;35.05
45991;BME280;31721;41.740;-88.000;2023-02-13T04:59:49;98309.91;;;6.07;35.24
45991;BME280;31721;41.740;-88.000;2023-02-13T05:02:17;98310.01;;;6.07;35.25
45991;BME280;31721;41.740;-88.000;2023-02-13T05:04:44;98305.72;;;6.03;35.36
45991;BME280;31721;41.740;-88.000;2023-02-13T05:07:11;98299.01;;;5.87;35.40
45991;BME280;31721;41.740;-88.000;2023-02-13T05:09:39;98300.59;;;5.85;35.29
45991;BME280;31721;41.740;-88.000;2023-02-13T05:12:06;98302.33;;;5.96;35.39
45991;BME280;31721;41.740;-88.000;2023-02-13T05:14:35;98302.57;;;5.84;35.25
45991;BME280;31721;41.740;-88.000;2023-02-13T05:17:03;98295.52;;;5.67;35.35
45991;BME280;31721;41.740;-88.000;2023-02-13T05:19:30;98293.60;;;5.76;35.83
45991;BME280;31721;41.740;-88.000;2023-02-13T05:21:58;98286.34;;;5.69;36.07
45991;BME280;31721;41.740;-88.000;2023-02-13T05:24:25;98279.89;;;5.72;35.84
45991;BME280;31721;41.740;-88.000;2023-02-13T05:26:53;98275.17;;;5.52;35.73
45991;BME280;31721;41.740;-88.000;2023-02-13T05:29:21;98268.81;;;5.53;35.83
45991;BME280;31721;41.740;-88.000;2023-02-13T05:31:51;98269.56;;;5.73;36.12
45991;BME280;31721;41.740;-88.000;2023-02-13T05:34:20;98270.52;;;6.02;35.75
45991;BME280;31721;41.740;-88.000;2023-02-13T05:36:48;98267.08;;;5.95;35.83
45991;BME280;31721;41.740;-88.000;2023-02-13T05:39:16;98263.52;;;5.75;35.86
45991;BME280;31721;41.740;-88.000;2023-02-13T05:41:50;98263.88;;;5.77;35.94
45991;BME280;31721;41.740;-88.000;2023-02-13T05:44:18;98263.09;;;5.75;36.05
45991;BME280;31721;41.740;-88.000;2023-02-13T05:46:45;98260.36;;;5.65;36.12
45991;BME280;31721;41.740;-88.000;2023-02-13T05:49:14;98258.81;;;5.38;36.32
45991;BME280;31721;41.740;-88.000;2023-02-13T05:51:42;98257.31;;;5.56;36.55
45991;BME280;31721;41.740;-88.000;2023-02-13T05:54:09;98255.88;;;5.51;36.40
45991;BME280;31721;41.740;-88.000;2023-02-13T05:56:37;98252.12;;;5.55;36.42
45991;BME280;31721;41.740;-88.000;2023-02-13T05:59:04;98257.52;;;5.57;36.63
45991;BME280;31721;41.740;-88.000;2023-02-13T06:01:33;98255.69;;;5.52;36.86
45991;BME280;31721;41.740;-88.000;2023-02-13T06:04:01;98255.73;;;5.64;36.80
45991;BME280;31721;41.740;-88.000;2023-02-13T06:06:28;98257.04;;;5.54;36.86
45991;BME280;31721;41.740;-88.000;2023-02-13T06:08:56;98257.31;;;5.58;36.88
45991;BME280;31721;41.740;-88.000;2023-02-13T06:11:23;98253.18;;;5.70;36.63
45991;BME280;31721;41.740;-88.000;2023-02-13T06:13:51;98254.04;;;5.67;36.85
45991;BME280;31721;41.740;-88.000;2023-02-13T06:16:19;98249.16;;;5.58;36.88
45991;BME280;31721;41.740;-88.000;2023-02-13T06:18:46;98244.54;;;5.57;36.97
45991;BME280;31721;41.740;-88.000;2023-02-13T06:21:14;98246.97;;;5.61;36.96
45991;BME280;31721;41.740;-88.000;2023-02-13T06:23:41;98249.66;;;5.45;37.03
45991;BME280;31721;41.740;-88.000;2023-02-13T06:26:09;98247.11;;;5.42;37.31
45991;BME280;31721;41.740;-88.000;2023-02-13T06:28:37;98243.05;;;5.28;37.44
45991;BME280;31721;41.740;-88.000;2023-02-13T06:31:04;98240.67;;;5.11;37.85
45991;BME280;31721;41.740;-88.000;2023-02-13T06:33:32;98239.34;;;5.21;37.91
45991;BME280;31721;41.740;-88.000;2023-02-13T06:36:05;98235.32;;;5.22;37.89
45991;BME280;31721;41.740;-88.000;2023-02-13T06:38:32;98233.33;;;5.08;38.12
45991;BME280;31721;41.740;-88.000;2023-02-13T06:41:01;98230.53;;;4.89;38.06
45991;BME280;31721;41.740;-88.000;2023-02-13T06:43:29;98228.45;;;4.98;38.40
45991;BME280;31721;41.740;-88.000;2023-02-13T06:45:57;98224.87;;;4.77;38.61
45991;BME280;31721;41.740;-88.000;2023-02-13T06:48:25;98229.24;;;4.90;38.69
45991;BME280;31721;41.740;-88.000;2023-02-13T06:50:53;98228.13;;;4.70;38.72
45991;BME280;31721;41.740;-88.000;2023-02-13T06:53:20;98223.84;;;4.71;38.96
45991;BME280;31721;41.740;-88.000;2023-02-13T06:55:48;98225.04;;;4.73;39.01
45991;BME280;31721;41.740;-88.000;2023-02-13T06:58:15;98223.48;;;4.68;39.09
45991;BME280;31721;41.740;-88.000;2023-02-13T07:00:43;98229.09;;;4.44;38.93
45991;BME280;31721;41.740;-88.000;2023-02-13T07:03:10;98223.00;;;4.49;39.19
45991;BME280;31721;41.740;-88.000;2023-02-13T07:05:39;98217.93;;;4.50;39.38
45991;BME280;31721;41.740;-88.000;2023-02-13T07:08:07;98213.68;;;4.56;39.15
45991;BME280;31721;41.740;-88.000;2023-02-13T07:10:37;98211.37;;;4.67;39.46
45991;BME280;31721;41.740;-88.000;2023-02-13T07:13:05;98220.06;;;4.59;39.61
45991;BME280;31721;41.740;-88.000;2023-02-13T07:15:33;98216.95;;;4.45;39.87
45991;BME280;31721;41.740;-88.000;2023-02-13T07:18:01;98208.81;;;4.49;40.01
45991;BME280;31721;41.740;-88.000;2023-02-13T07:20:29;98202.71;;;4.43;40.12
45991;BME280;31721;41.740;-88.000;2023-02-13T07:22:58;98202.51;;;4.35;40.32
45991;BME280;31721;41.740;-88.000;2023-02-13T07:25:26;98195.32;;;4.31;40.52
45991;BME280;31721;41.740;-88.000;2023-02-13T07:27:54;98184.70;;;4.02;40.50
45991;BME280;31721;41.740;-88.000;2023-02-13T07:30:21;98187.46;;;3.93;40.62
45991;BME280;31721;41.740;-88.000;2023-02-13T07:32:49;98184.48;;;3.96;40.65
45991;BME280;31721;41.740;-88.000;2023-02-13T07:35:16;98181.81;;;4.29;40.86
45991;BME280;31721;41.740;-88.000;2023-02-13T07:37:44;98185.85;;;4.40;40.76
45991;BME280;31721;41.740;-88.000;2023-02-13T07:40:11;98185.64;;;4.52;40.70
45991;BME280;31721;41.740;-88.000;2023-02-13T07:42:40;98187.35;;;4.35;40.86
45991;BME280;31721;41.740;-88.000;2023-02-13T07:45:08;98190.24;;;4.31;40.71
45991;BME280;31721;41.740;-88.000;2023-02-13T07:47:35;98192.00;;;4.30;41.03
45991;BME280;31721;41.740;-88.000;2023-02-13T07:50:03;98191.70;;;4.24;40.90
45991;BME280;31721;41.740;-88.000;2023-02-13T07:52:31;98189.63;;;4.21;41.29
45991;BME280;31721;41.740;-88.000;2023-02-13T07:54:59;98188.55;;;3.95;41.32
45991;BME280;31721;41.740;-88.000;2023-02-13T07:57:27;98186.43;;;4.17;41.48
45991;BME280;31721;41.740;-88.000;2023-02-13T07:59:54;98185.89;;;4.14;41.41
45991;BME280;31721;41.740;-88.000;2023-02-13T08:02:22;98179.62;;;4.05;41.46
45991;BME280;31721;41.740;-88.000;2023-02-13T08:04:49;98189.15;;;4.07;41.44
45991;BME280;31721;41.740;-88.000;2023-02-13T08:07:17;98195.01;;;3.94;41.35
45991;BME280;31721;41.740;-88.000;2023-02-13T08:09:45;98201.56;;;3.84;41.60
45991;BME280;31721;41.740;-88.000;2023-02-13T08:12:12;98199.14;;;3.98;41.85
45991;BME280;31721;41.740;-88.000;2023-02-13T08:14:40;98196.43;;;3.97;41.84
45991;BME280;31721;41.740;-88.000;2023-02-13T08:17:08;98192.78;;;3.82;41.85
45991;BME280;31721;41.740;-88.000;2023-02-13T08:19:36;98194.40;;;3.86;42.00
45991;BME280;31721;41.740;-88.000;2023-02-13T08:22:04;98200.89;;;3.56;41.87
45991;BME280;31721;41.740;-88.000;2023-02-13T08:24:32;98200.29;;;3.56;41.85
45991;BME280;31721;41.740;-88.000;2023-02-13T08:26:59;98195.32;;;3.66;42.34
45991;BME280;31721;41.740;-88.000;2023-02-13T08:29:28;98193.31;;;3.68;42.57
45991;BME280;31721;41.740;-88.000;2023-02-13T08:31:55;98188.54;;;3.86;42.49
45991;BME280;31721;41.740;-88.000;2023-02-13T08:34:23;98190.23;;;3.82;42.59
45991;BME280;31721;41.740;-88.000;2023-02-13T08:36:51;98188.06;;;3.91;42.74
45991;BME280;31721;41.740;-88.000;2023-02-13T08:39:18;98183.72;;;3.98;42.82
45991;BME280;31721;41.740;-88.000;2023-02-13T08:41:46;98185.77;;;3.72;42.96
45991;BME280;31721;41.740;-88.000;2023-02-13T08:44:14;98185.61;;;3.71;43.19
45991;BME280;31721;41.740;-88.000;2023-02-13T08:46:41;98173.85;;;3.74;43.30
45991;BME280;31721;41.740;-88.000;2023-02-13T08:49:09;98172.11;;;3.49;43.36
45991;BME280;31721;41.740;-88.000;2023-02-13T08:51:36;98179.05;;;3.23;43.16
45991;BME280;31721;41.740;-88.000;2023-02-13T08:54:04;98178.06;;;3.34;43.51
45991;BME280;31721;41.740;-88.000;2023-02-13T08:56:31;98177.48;;;3.30;43.05
45991;BME280;31721;41.740;-88.000;2023-02-13T08:58:59;98175.87;;;3.37;43.25
45991;BME280;31721;41.740;-88.000;2023-02-13T09:01:26;98171.65;;;3.29;43.23
45991;BME280;31721;41.740;-88.000;2023-02-13T09:03:54;98162.19;;;3.41;43.76
45991;BME280;31721;41.740;-88.000;2023-02-13T09:06:22;98155.09;;;3.46;43.77
45991;BME280;31721;41.740;-88.000;2023-02-13T09:08:50;98155.56;;;3.43;43.43
45991;BME280;31721;41.740;-88.000;2023-02-13T09:11:17;98149.29;;;3.44;43.44
45991;BME280;31721;41.740;-88.000;2023-02-13T09:13:45;98153.36;;;3.24;43.65
45991;BME280;31721;41.740;-88.000;2023-02-13T09:16:13;98155.69;;;3.25;43.88
45991;BME280;31721;41.740;-88.000;2023-02-13T09:18:40;98150.60;;;3.19;44.03
45991;BME280;31721;41.740;-88.000;2023-02-13T09:21:11;98155.38;;;3.25;44.21
45991;BME280;31721;41.740;-88.000;2023-02-13T09:23:40;98146.28;;;3.28;44.53
45991;BME280;31721;41.740;-88.000;2023-02-13T09:26:10;98143.56;;;3.27;44.68
45991;BME280;31721;41.740;-88.000;2023-02-13T09:28:39;98144.60;;;3.28;44.58
45991;BME280;31721;41.740;-88.000;2023-02-13T09:31:07;98150.37;;;3.13;44.95
45991;BME280;31721;41.740;-88.000;2023-02-13T09:33:36;98149.51;;;3.11;44.99
45991;BME280;31721;41.740;-88.000;2023-02-13T09:36:05;98142.00;;;3.16;45.16
45991;BME280;31721;41.740;-88.000;2023-02-13T09:38:33;98136.10;;;3.30;45.19
45991;BME280;31721;41.740;-88.000;2023-02-13T09:41:04;98133.88;;;3.23;45.20
45991;BME280;31721;41.740;-88.000;2023-02-13T09:43:36;98143.14;;;3.16;44.76
45991;BME280;31721;41.740;-88.000;2023-02-13T09:46:10;98155.56;;;3.06;44.77
45991;BME280;31721;41.740;-88.000;2023-02-13T09:48:40;98155.83;;;2.93;45.26
45991;BME280;31721;41.740;-88.000;2023-02-13T09:51:13;98165.23;;;2.86;44.92
45991;BME280;31721;41.740;-88.000;2023-02-13T09:53:48;98159.56;;;2.98;45.67
45991;BME280;31721;41.740;-88.000;2023-02-13T09:56:20;98161.19;;;3.00;45.76
45991;BME280;31721;41.740;-88.000;2023-02-13T09:58:53;98164.80;;;2.94;45.86
45991;BME280;31721;41.740;-88.000;2023-02-13T10:01:29;98153.67;;;2.85;45.86
45991;BME280;31721;41.740;-88.000;2023-02-13T10:04:16;98159.13;;;2.69;45.83
45991;BME280;31721;41.740;-88.000;2023-02-13T10:06:49;98175.36;;;2.40;46.90
45991;BME280;31721;41.740;-88.000;2023-02-13T10:09:27;98178.95;;;2.39;46.07
45991;BME280;31721;41.740;-88.000;2023-02-13T10:12:43;98177.12;;;2.68;46.42
45991;BME280;31721;41.740;-88.000;2023-02-13T10:15:20;98171.87;;;2.19;46.88
45991;BME280;31721;41.740;-88.000;2023-02-13T10:17:55;98174.43;;;1.89;48.08
45991;BME280;31721;41.740;-88.000;2023-02-13T10:20:29;98173.51;;;2.15;46.36
45991;BME280;31721;41.740;-88.000;2023-02-13T10:23:07;98171.45;;;2.29;46.67
45991;BME280;31721;41.740;-88.000;2023-02-13T10:25:45;98177.23;;;1.98;47.64
45991;BME280;31721;41.740;-88.000;2023-02-13T10:28:20;98173.52;;;2.00;47.21
45991;BME280;31721;41.740;-88.000;2023-02-13T10:30:54;98181.27;;;2.17;47.05
45991;BME280;31721;41.740;-88.000;2023-02-13T10:33:27;98185.71;;;1.80;47.28
45991;BME280;31721;41.740;-88.000;2023-02-13T10:36:00;98187.36;;;2.17;47.07
45991;BME280;31721;41.740;-88.000;2023-02-13T10:38:32;98191.84;;;2.04;47.11
45991;BME280;31721;41.740;-88.000;2023-02-13T10:41:13;98193.23;;;2.06;48.05
45991;BME280;31721;41.740;-88.000;2023-02-13T10:43:57;98189.89;;;1.95;47.34
45991;BME280;31721;41.740;-88.000;2023-02-13T10:46:38;98192.46;;;2.11;47.21
45991;BME280;31721;41.740;-88.000;2023-02-13T10:49:30;98193.82;;;2.16;47.22
45991;BME280;31721;41.740;-88.000;2023-02-13T10:52:05;98194.23;;;2.34;47.10
45991;BME280;31721;41.740;-88.000;2023-02-13T10:54:51;98191.91;;;2.34;47.23
45991;BME280;31721;41.740;-88.000;2023-02-13T10:57:26;98192.77;;;2.53;47.05
45991;BME280;31721;41.740;-88.000;2023-02-13T11:00:03;98180.63;;;2.50;46.99
45991;BME280;31721;41.740;-88.000;2023-02-13T11:02:35;98181.36;;;2.43;46.94
45991;BME280;31721;41.740;-88.000;2023-02-13T11:05:13;98179.24;;;2.46;46.88
45991;BME280;31721;41.740;-88.000;2023-02-13T11:07:42;98173.52;;;2.59;47.00
45991;BME280;31721;41.740;-88.000;2023-02-13T11:10:15;98175.57;;;2.69;46.86
45991;BME280;31721;41.740;-88.000;2023-02-13T11:12:45;98174.65;;;2.70;46.77
45991;BME280;31721;41.740;-88.000;2023-02-13T11:15:24;98179.24;;;2.70;46.58
45991;BME280;31721;41.740;-88.000;2023-02-13T11:17:54;98178.63;;;2.70;46.65
45991;BME280;31721;41.740;-88.000;2023-02-13T11:20:29;98182.39;;;2.72;46.63
45991;BME280;31721;41.740;-88.000;2023-02-13T11:23:32;98180.36;;;2.67;46.47
45991;BME280;31721;41.740;-88.000;2023-02-13T11:26:02;98183.92;;;2.63;46.53
45991;BME280;31721;41.740;-88.000;2023-02-13T11:28:31;98175.32;;;2.63;46.53
45991;BME280;31721;41.740;-88.000;2023-02-13T11:31:12;98177.97;;;2.59;46.60
45991;BME280;31721;41.740;-88.000;2023-02-13T11:33:40;98182.81;;;2.59;46.75
45991;BME280;31721;41.740;-88.000;2023-02-13T11:36:12;98181.27;;;2.67;46.80
45991;BME280;31721;41.740;-88.000;2023-02-13T11:38:42;98183.68;;;2.67;46.78
45991;BME280;31721;41.740;-88.000;2023-02-13T11:41:11;98188.10;;;2.78;46.55
45991;BME280;31721;41.740;-88.000;2023-02-13T11:43:47;98191.90;;;2.78;46.49
45991;BME280;31721;41.740;-88.000;2023-02-13T11:46:19;98195.77;;;2.91;46.21
45991;BME280;31721;41.740;-88.000;2023-02-13T11:49:03;98194.62;;;2.69;46.25
45991;BME280;31721;41.740;-88.000;2023-02-13T11:51:38;98205.35;;;2.55;46.01
45991;BME280;31721;41.740;-88.000;2023-02-13T11:54:22;98206.33;;;2.41;46.36
45991;BME280;31721;41.740;-88.000;2023-02-13T11:56:53;98203.89;;;2.63;46.60
45991;BME280;31721;41.740;-88.000;2023-02-13T11:59:23;98206.56;;;2.63;46.41
45991;BME280;31721;41.740;-88.000;2023-02-13T12:02:03;98203.20;;;2.59;46.53
45991;BME280;31721;41.740;-88.000;2023-02-13T12:04:38;98204.65;;;2.62;46.86
45991;BME280;31721;41.740;-88.000;2023-02-13T12:07:15;98203.37;;;2.66;46.62
45991;BME280;31721;41.740;-88.000;2023-02-13T12:09:46;98207.90;;;2.55;46.59
45991;BME280;31721;41.740;-88.000;2023-02-13T12:12:18;98209.01;;;2.44;46.44
45991;BME280;31721;41.740;-88.000;2023-02-13T12:14:47;98214.97;;;2.45;47.08
45991;BME280;31721;41.740;-88.000;2023-02-13T12:17:17;98219.08;;;2.14;46.46
45991;BME280;31721;41.740;-88.000;2023-02-13T12:19:49;98218.34;;;2.10;46.70
45991;BME280;31721;41.740;-88.000;2023-02-13T12:22:28;98217.00;;;2.12;47.18
45991;BME280;31721;41.740;-88.000;2023-02-13T12:25:18;98222.20;;;2.28;47.67
45991;BME280;31721;41.740;-88.000;2023-02-13T12:28:02;98219.56;;;2.21;47.52
45991;BME280;31721;41.740;-88.000;2023-02-13T12:31:17;98222.51;;;2.12;47.57
45991;BME280;31721;41.740;-88.000;2023-02-13T12:34:36;98225.32;;;2.06;47.34
45991;BME280;31721;41.740;-88.000;2023-02-13T12:37:16;98231.17;;;1.97;47.39
45991;BME280;31721;41.740;-88.000;2023-02-13T12:39:59;98227.67;;;1.81;47.53
45991;BME280;31721;41.740;-88.000;2023-02-13T12:42:37;98226.04;;;1.81;47.98
45991;BME280;31721;41.740;-88.000;2023-02-13T12:45:15;98230.35;;;1.79;47.52
45991;BME280;31721;41.740;-88.000;2023-02-13T12:47:56;98235.77;;;1.60;47.66
45991;BME280;31721;41.740;-88.000;2023-02-13T12:50:35;98240.47;;;1.58;47.88
45991;BME280;31721;41.740;-88.000;2023-02-13T12:53:17;98248.18;;;1.58;48.27
45991;BME280;31721;41.740;-88.000;2023-02-13T12:56:05;98250.48;;;1.56;47.97
45991;BME280;31721;41.740;-88.000;2023-02-13T12:58:48;98255.05;;;1.60;48.26
45991;BME280;31721;41.740;-88.000;2023-02-13T13:01:38;98255.51;;;1.66;48.24
45991;BME280;31721;41.740;-88.000;2023-02-13T13:04:15;98258.13;;;1.80;48.24
45991;BME280;31721;41.740;-88.000;2023-02-13T13:06:57;98260.92;;;1.77;48.35
45991;BME280;31721;41.740;-88.000;2023-02-13T13:10:15;98271.03;;;1.61;48.05
45991;BME280;31721;41.740;-88.000;2023-02-13T13:12:54;98269.64;;;1.94;48.67
45991;BME280;31721;41.740;-88.000;2023-02-13T13:15:33;98274.45;;;1.91;48.51